Temp     Hi    Low   Out    Dew  Wind  Wind   Wind    Hi    Hi   Wind   Heat    THW                Rain    Heat    Cool    In     In    In     In     In   In Air   Temp  Wind  Wind    ISS   Arc.
  Date    Time     Out   Temp   Temp   Hum    Pt. Speed   Dir    Run Speed   Dir  Chill  Index  Index   Bar    Rain  Rate    D-D     D-D    Temp   Hum    Dew   Heat    EMC Density    2nd  Samp   Tx   Recept  Int.
----------------------------------------------------------------------------------------------------------------------------------------------------------------------------------------------------------------------
19/02/18 12:10a   21.7   21.7   21.6    53   11.7   1.6     S   0.27  11.3     S   21.7   21.0   21.0  1007.5  0.00   0.0   0.000   0.023   27.5    34   10.2   26.7   6.59 1.1535    51.1   210    2     94.6   10 
19/02/18 12:20a   21.7   21.7   21.6    54   12.0   3.2     S   0.54  12.9     S   21.7   21.1   21.1  1007.4  0.00   0.0   0.000   0.023   27.3    34   10.0   26.4   6.61 1.1545    51.1   216    2     97.3   10 
19/02/18 12:30a   21.8   21.8   21.7    55   12.3   4.8     S   0.80  16.1     S   21.8   21.3   21.3  1007.5  0.00   0.0   0.000   0.024   27.2    35   10.4   26.3   6.81 1.1547    51.1   212    2     95.5   10 
19/02/18 12:40a   21.7   21.8   21.7    55   12.2   4.8     S   0.80  17.7     S   21.7   21.1   21.1  1007.5  0.00   0.0   0.000   0.023   27.0    35   10.2   26.2   6.83 1.1555    51.1   218    2     98.2   10 
19/02/18 12:50a   21.5   21.7   21.5    56   12.4   1.6     S   0.27  12.9     S   21.5   20.9   20.9  1007.4  0.00   0.0   0.000   0.022   26.8    36   10.5   26.0   6.94 1.1560    50.6   211    2     95.0   10 
19/02/18  1:00a   21.2   21.5   21.2    58   12.6   1.6     S   0.27  14.5     S   21.2   20.7   20.7  1007.3  0.00   0.0   0.000   0.020   26.4    37   10.6   25.8   7.16 1.1571    50.6   211    2     95.0   10 
19/02/18  1:10a   21.1   21.2   21.1    60   13.0   1.6     S   0.27  11.3     S   21.1   20.7   20.7  1007.3  0.00   0.0   0.000   0.019   26.3    38   10.8   25.7   7.26 1.1575    50.6   213    2     95.9   10 
19/02/18  1:20a   20.9   21.1   20.9    61   13.1   1.6     S   0.27  11.3     S   20.9   20.6   20.6  1007.3  0.00   0.0   0.000   0.018   26.2    39   11.1   25.7   7.47 1.1576    50.6   214    2     96.4   10 
19/02/18  1:30a   20.7   20.9   20.7    62   13.1   0.0     S   0.00   8.0     S   20.7   20.4   20.4  1007.3  0.00   0.0   0.000   0.016   26.1    39   11.0   25.6   7.47 1.1581    50.6   211    2     95.0   10 
19/02/18  1:40a   20.6   20.7   20.6    64   13.5   1.6     S   0.27  17.7     S   20.6   20.4   20.4  1007.3  0.00   0.0   0.000   0.015   26.2    39   11.1   25.7   7.47 1.1575    50.6   211    2     95.0   10 
19/02/18  1:50a   20.7   20.7   20.6    64   13.6   6.4   SSE   1.07  17.7    SE   20.7   20.6   20.6  1007.1  0.00   0.0   0.000   0.016   26.1    41   11.8   25.7   7.75 1.1571    50.6   215    2     96.8   10 
19/02/18  2:00a   20.7   20.7   20.6    64   13.6   6.4   SSE   1.07  19.3    SE   20.7   20.6   20.6  1007.1  0.00   0.0   0.000   0.016   25.9    41   11.7   25.6   7.75 1.1577    50.6   218    2     98.2   10 
19/02/18  2:10a   20.6   20.7   20.6    64   13.5   4.8   SSE   0.80  19.3   SSE   20.6   20.4   20.4  1007.1  0.00   0.0   0.000   0.015   25.8    41   11.6   25.4   7.75 1.1582    50.6   214    2     96.4   10 
19/02/18  2:20a   20.6   20.6   20.6    64   13.5   6.4   SSE   1.07  19.3   SSE   20.6   20.4   20.4  1007.2  0.00   0.0   0.000   0.015   25.7    41   11.5   25.3   7.75 1.1588    50.6   213    2     95.9   10 
19/02/18  2:30a   20.5   20.6   20.5    64   13.5   4.8   SSE   0.80  16.1   SSE   20.5   20.4   20.4  1007.0  0.00   0.0   0.000   0.015   25.7    41   11.5   25.3   7.75 1.1586    50.6   210    2     94.6   10 
19/02/18  2:40a   20.4   20.5   20.4    64   13.3   1.6   SSE   0.27  16.1   SSE   20.4   20.3   20.3  1007.0  0.00   0.0   0.000   0.014   25.6    41   11.4   25.2   7.75 1.1592    50.6   215    2     96.8   10 
19/02/18  2:50a   20.2   20.4   20.2    64   13.2   0.0   SSE   0.00   8.0   SSE   20.2   20.2   20.2  1006.8  0.00   0.0   0.000   0.013   25.6    41   11.4   25.2   7.75 1.1589    50.6   214    2     96.4   10 
19/02/18  3:00a   20.1   20.2   20.1    65   13.3   1.6   SSE   0.27  16.1    SE   20.1   20.2   20.2  1006.6  0.00   0.0   0.000   0.012   25.6    42   11.7   25.2   7.89 1.1586    50.6   209    2     94.1   10 
19/02/18  3:10a   20.1   20.1   20.1    66   13.6   4.8   SSE   0.80  16.1   SSE   20.1   20.2   20.2  1006.6  0.00   0.0   0.000   0.012   25.4    42   11.6   25.1   7.89 1.1591    50.6   214    2     96.4   10 
19/02/18  3:20a   20.0   20.1   20.0    67   13.7   3.2   SSE   0.54  11.3   SSE   20.0   20.2   20.2  1006.5  0.00   0.0   0.000   0.012   25.3    43   11.8   25.0   8.05 1.1591    50.6   213    2     95.9   10 
19/02/18  3:30a   20.1   20.1   20.0    67   13.8   3.2   SSE   0.54  17.7    SE   20.1   20.3   20.3  1006.4  0.00   0.0   0.000   0.012   25.3    44   12.2   25.1   8.20 1.1587    50.6   213    2     95.9   10 
19/02/18  3:40a   20.2   20.2   20.1    67   13.9   1.6   SSE   0.27  11.3   SSE   20.2   20.4   20.4  1006.4  0.00   0.0   0.000   0.013   25.3    44   12.2   25.1   8.20 1.1587    50.6   213    2     95.9   10 
19/02/18  3:50a   20.1   20.2   20.1    67   13.8   1.6   SSE   0.27   8.0   SSE   20.1   20.3   20.3  1006.3  0.00   0.0   0.000   0.012   25.3    44   12.2   25.1   8.20 1.1586    50.6   214    2     96.4   10 
19/02/18  4:00a   20.1   20.1   20.1    68   14.0   1.6   SSE   0.27  16.1   SSE   20.1   20.3   20.3  1006.6  0.00   0.0   0.000   0.012   25.3    44   12.2   25.1   8.20 1.1588    51.1   216    2     97.3   10 
19/02/18  4:10a   20.2   20.2   20.1    67   13.9   3.2   SSE   0.54   9.7     S   20.2   20.4   20.4  1006.6  0.00   0.0   0.000   0.013   25.2    45   12.4   24.9   8.40 1.1590    51.1   207    2     93.2   10 
19/02/18  4:20a   20.2   20.2   20.2    67   13.9   4.8   SSE   0.80  19.3   SSE   20.2   20.4   20.4  1006.7  0.00   0.0   0.000   0.013   25.2    45   12.4   24.9   8.40 1.1592    51.1   210    2     94.6   10 
19/02/18  4:30a   20.2   20.3   20.2    67   13.9   4.8   SSE   0.80  20.9    SE   20.2   20.4   20.4  1006.7  0.00   0.0   0.000   0.013   25.2    45   12.4   24.9   8.40 1.1594    51.1   212    2     95.5   10 
19/02/18  4:40a   20.2   20.2   20.2    68   14.1   3.2   SSE   0.54  17.7   SSE   20.2   20.4   20.4  1006.7  0.00   0.0   0.000   0.013   25.1    46   12.6   24.8   8.51 1.1596    50.6   211    2     95.0   10 
19/02/18  4:50a   20.1   20.2   20.1    68   14.0   3.2   SSE   0.54  17.7    SE   20.1   20.3   20.3  1006.6  0.00   0.0   0.000   0.012   24.9    46   12.5   24.7   8.51 1.1600    50.6   215    2     96.8   10 
19/02/18  5:00a   20.1   20.1   20.1    69   14.2   1.6   SSE   0.27  11.3   SSE   20.1   20.4   20.4  1006.7  0.00   0.0   0.000   0.012   24.8    46   12.4   24.6   8.52 1.1607    50.6   212    2     95.5   10 
19/02/18  5:10a   20.0   20.1   20.0    69   14.1   1.6   SSE   0.27   9.7   SSE   20.0   20.3   20.3  1006.7  0.00   0.0   0.000   0.012   24.7    46   12.3   24.5   8.52 1.1612    51.1   215    2     96.8   10 
19/02/18  5:20a   19.8   20.0   19.8    70   14.2   0.0   ---   0.00   0.0   ---   19.8   20.1   20.1  1006.8  0.00   0.0   0.000   0.010   24.8    46   12.4   24.6   8.52 1.1608    50.6   215    2     96.8   10 
19/02/18  5:30a   19.8   19.8   19.8    70   14.2   0.0   SSE   0.00   3.2   SSE   19.8   20.1   20.1  1006.8  0.00   0.0   0.000   0.010   24.7    47   12.6   24.6   8.72 1.1610    50.6   207    2     93.2   10 
19/02/18  5:40a   19.7   19.8   19.7    71   14.3   0.0   ---   0.00   0.0   ---   19.7   19.9   19.9  1006.8  0.00   0.0   0.000   0.009   24.7    46   12.3   24.5   8.52 1.1614    50.6   216    2     97.3   10 
19/02/18  5:50a   19.4   19.7   19.4    71   14.0   0.0   SSE   0.00   3.2   SSE   19.4   19.7   19.7  1007.1  0.00   0.0   0.000   0.008   24.7    47   12.6   24.6   8.72 1.1614    50.6   208    2     93.7   10 
19/02/18  6:00a   19.4   19.4   19.4    71   14.0   0.0   ---   0.00   0.0   ---   19.4   19.6   19.6  1006.9  0.00   0.0   0.000   0.007   24.7    46   12.3   24.5   8.52 1.1615    50.6   212    2     95.5   10 
19/02/18  6:10a   19.3   19.4   19.3    71   13.9   0.0   ---   0.00   0.0   ---   19.3   19.5   19.5  1006.9  0.00   0.0   0.000   0.007   24.7    46   12.3   24.5   8.52 1.1615    50.6   213    2     95.9   10 
19/02/18  6:20a   19.2   19.3   19.2    72   14.0   0.0   ---   0.00   0.0   ---   19.2   19.4   19.4  1007.6  0.00   0.0   0.000   0.006   24.7    46   12.3   24.4   8.52 1.1626    50.6   213    2     95.9   10 
19/02/18  6:30a   19.2   19.2   19.2    72   14.0   0.0   SSE   0.00   1.6   SSE   19.2   19.4   19.4  1007.8  0.00   0.0   0.000   0.006   24.7    47   12.6   24.5   8.72 1.1624    50.6   214    2     96.4   10 
19/02/18  6:40a   19.3   19.3   19.2    73   14.3   0.0   ---   0.00   0.0   ---   19.3   19.6   19.6  1007.8  0.00   0.0   0.000   0.007   24.4    47   12.4   24.3   8.73 1.1635    50.6   213    2     95.9   10 
19/02/18  6:50a   19.1   19.3   19.1    73   14.2   0.0   ---   0.00   0.0   ---   19.1   19.4   19.4  1007.9  0.00   0.0   0.000   0.005   24.2    48   12.5   24.1   8.94 1.1646    50.0   212    2     95.5   10 
19/02/18  7:00a   18.9   19.1   18.9    74   14.2   0.0   ---   0.00   0.0   ---   18.9   19.2   19.2  1007.9  0.00   0.0   0.000   0.004   23.9    49   12.6   23.9   9.05 1.1653    50.6   215    2     96.8   10 
19/02/18  7:10a   18.9   18.9   18.9    74   14.2   0.0   ---   0.00   0.0   ---   18.9   19.2   19.2  1007.9  0.00   0.0   0.000   0.004   23.9    50   12.8   23.9   9.25 1.1653    50.6   213    2     95.9   10 
19/02/18  7:20a   19.0   19.0   18.9    75   14.5   0.0   ---   0.00   0.0   ---   19.0   19.3   19.3  1008.7  0.00   0.0   0.000   0.005   24.3    50   13.2   24.3   9.24 1.1643    50.6   214    2     96.4   10 
19/02/18  7:30a   19.0   19.0   19.0    75   14.5   0.0   ---   0.00   0.0   ---   19.0   19.3   19.3  1008.7  0.00   0.0   0.000   0.005   24.4    49   13.0   24.4   9.03 1.1639    50.6   209    2     94.1   10 
19/02/18  7:40a   19.3   19.3   19.0    75   14.7   0.0   ---   0.00   0.0   ---   19.3   19.6   19.6  1008.7  0.00   0.0   0.000   0.007   24.4    50   13.3   24.4   9.23 1.1635    51.1   213    2     95.9   10 
19/02/18  7:50a   19.6   19.6   19.3    74   14.8   1.6   SSE   0.27  16.1   SSE   19.6   19.9   19.9  1008.8  0.00   0.0   0.000   0.008   24.6    50   13.4   24.6   9.23 1.1631    51.1   212    2     95.5   10 
19/02/18  8:00a   20.1   20.1   19.7    73   15.1   1.6   SSE   0.27   9.7   SSE   20.1   20.6   20.6  1009.1  0.00   0.0   0.000   0.012   24.7    50   13.5   24.6   9.22 1.1629    51.7   206    2     92.8   10 
19/02/18  8:10a   20.5   20.5   20.1    72   15.3   1.6   SSE   0.27  11.3   SSE   20.5   20.8   20.8  1009.1  0.00   0.0   0.000   0.015   24.8    51   14.0   24.8   9.35 1.1617    51.7   211    2     95.0   10 
19/02/18  8:20a   20.7   20.7   20.5    71   15.2   0.0   SSE   0.00  12.9   SSE   20.7   20.9   20.9  1009.3  0.00   0.0   0.000   0.016   24.9    50   13.8   24.8   9.21 1.1617    52.2   207    2     93.2   10 
19/02/18  8:30a   20.8   20.8   20.7    71   15.4   1.6   SSE   0.27   9.7   ESE   20.8   21.1   21.1  1009.5  0.00   0.0   0.000   0.017   25.1    51   14.2   25.0   9.35 1.1610    52.2   208    2     93.7   10 
19/02/18  8:40a   21.1   21.1   20.8    71   15.6   3.2    SE   0.54  16.1   SSE   21.1   21.2   21.2  1009.5  0.00   0.0   0.000   0.019   25.1    51   14.2   25.0   9.35 1.1610    52.8   207    2     93.2   10 
19/02/18  8:50a   21.4   21.4   21.1    70   15.7   6.4   SSE   1.07  19.3   SSE   21.4   21.6   21.6  1009.7  0.00   0.0   0.000   0.021   25.1    52   14.5   25.1   9.51 1.1609    52.8   214    2     96.4   10 
19/02/18  9:00a   21.6   21.6   21.4    69   15.7   6.4   SSE   1.07  19.3   SSE   21.6   21.8   21.8  1009.5  0.00   0.0   0.000   0.023   25.1    51   14.2   25.0   9.35 1.1610    53.3   208    2     93.7   10 
19/02/18  9:10a   21.5   21.6   21.5    69   15.6   3.2   SSE   0.54  17.7    SE   21.5   21.6   21.6  1009.5  0.00   0.0   0.000   0.022   25.1    52   14.5   25.1   9.51 1.1606    53.3   206    2     92.8   10 
19/02/18  9:20a   21.5   21.5   21.4    69   15.6   6.4    SE   1.07  19.3   SSE   21.5   21.6   21.6  1009.5  0.00   0.0   0.000   0.022   25.1    51   14.2   25.0   9.35 1.1610    53.3   196    2     88.3   10 
19/02/18  9:30a   21.5   21.5   21.4    68   15.3   8.0   SSE   1.34  22.5   SSE   21.5   21.6   21.6  1009.5  0.00   0.0   0.000   0.022   25.1    51   14.2   25.0   9.35 1.1610    53.3   201    2     90.5   10 
19/02/18  9:40a   21.8   21.8   21.5    67   15.4   6.4   SSE   1.07  20.9   SSE   21.8   21.9   21.9  1009.5  0.00   0.0   0.000   0.024   25.2    51   14.3   25.2   9.35 1.1604    54.4   200    2     90.1   10 
19/02/18  9:50a   22.3   22.3   21.8    61   14.4   6.4   SSE   1.07  19.3    SE   22.3   22.4   22.4  1009.5  0.00   0.0   0.000   0.028   25.2    50   14.1   25.2   9.20 1.1605    55.0   201    2     90.5   10 
19/02/18 10:00a   22.8   22.8   22.3    59   14.4   4.8   ESE   0.80  25.7    SE   22.8   23.0   23.0  1009.6  0.00   0.0   0.000   0.031   25.3    48   13.5   25.2   8.90 1.1609    55.6   206    2     92.8   10 
19/02/18 10:10a   22.9   22.9   22.8    58   14.2   6.4   SSE   1.07  19.3   SSE   22.9   23.1   23.1  1009.6  0.00   0.0   0.000   0.032   25.4    47   13.3   25.3   8.69 1.1607    56.1   213    2     95.9   10 
19/02/18 10:20a   23.1   23.1   22.9    57   14.1   4.8   ESE   0.80  20.9   SSE   23.1   23.3   23.3  1009.7  0.00   0.0   0.000   0.033   25.6    46   13.1   25.4   8.49 1.1606    56.7   209    2     94.1   10 
19/02/18 10:30a   23.7   23.7   23.1    54   13.9   6.4   SSE   1.07  20.9   SSE   23.7   23.9   23.9  1009.6  0.00   0.0   0.000   0.037   25.6    46   13.1   25.4   8.49 1.1602    58.3   212    2     95.5   10 
19/02/18 10:40a   24.3   24.3   23.7    51   13.5   9.7   SSE   1.61  19.3    SE   24.3   24.3   24.3  1009.6  0.00   0.0   0.000   0.041   25.6    45   12.8   25.4   8.39 1.1606    60.0   215    2     96.8   10 
19/02/18 10:50a   24.2   24.4   24.2    52   13.7   9.7    SE   1.61  25.7    SE   24.2   24.3   24.3  1009.6  0.00   0.0   0.000   0.041   25.7    44   12.6   25.4   8.18 1.1605    59.4   212    2     95.5   10 
19/02/18 11:00a   24.6   24.6   24.2    50   13.4   6.4     S   1.07  20.9   ENE   24.6   24.6   24.6  1009.6  0.00   0.0   0.000   0.043   25.8    44   12.7   25.6   8.18 1.1599    60.0   207    2     93.2   10 
19/02/18 11:10a   25.2   25.2   24.6    49   13.7   3.2   ESE   0.54  19.3   ESE   25.2   25.1   25.1  1009.6  0.00   0.0   0.000   0.047   25.9    44   12.8   25.7   8.18 1.1594    61.1   209    2     94.1   10 
19/02/18 11:20a   25.3   25.6   25.2    50   14.1   4.8   SSE   0.80  20.9    SE   25.3   25.2   25.2  1009.6  0.00   0.0   0.000   0.048   26.3    44   13.1   26.1   8.16 1.1577    61.1   210    2     94.6   10 
19/02/18 11:30a   25.2   25.8   25.2    51   14.3   6.4   SSE   1.07  22.5   SSE   25.2   25.2   25.2  1009.5  0.00   0.0   0.000   0.047   26.4    44   13.2   26.2   8.16 1.1568    59.4   198    2     89.2   10 
19/02/18 11:40a   24.6   25.2   24.6    53   14.3   9.7   SSE   1.61  25.7    SE   24.6   24.7   24.7  1009.5  0.00   0.0   0.000   0.043   26.4    44   13.2   26.2   8.16 1.1568    59.4   204    2     91.9   10 
19/02/18 11:50a   24.4   24.6   24.3    53   14.2  11.3   SSE   1.88  22.5    SE   24.4   24.5   24.5  1009.5  0.00   0.0   0.000   0.042   26.4    43   12.9   26.1   8.05 1.1572    60.0   216    2     97.3   10 
19/02/18 12:00p   24.7   24.7   24.4    49   13.2  11.3   SSE   1.88  22.5   SSE   24.7   24.6   24.6  1009.4  0.00   0.0   0.000   0.044   26.6    42   12.6   26.2   7.85 1.1569    60.0   209    2     94.1   10 
19/02/18 12:10p   25.8   25.9   24.7    44   12.6   4.8     S   0.80  19.3     S   25.8   25.5   25.5  1009.4  0.00   0.0   0.000   0.052   26.8    41   12.4   26.3   7.75 1.1563    61.1   212    2     95.5   10 
19/02/18 12:20p   25.3   25.8   25.3    49   13.8   4.8   SSE   0.80  19.3   SSE   25.3   25.2   25.2  1009.4  0.00   0.0   0.000   0.048   26.8    40   12.0   26.2   7.55 1.1567    59.4   208    2     93.7   10 
19/02/18 12:30p   24.4   25.3   24.4    54   14.5   8.0     S   1.34  17.7     S   24.4   24.6   24.6  1009.4  0.00   0.0   0.000   0.042   26.8    42   12.8   26.3   7.85 1.1558    58.3   209    2     94.1   10 
19/02/18 12:40p   24.3   24.5   24.3    55   14.7   8.0     S   1.34  20.9    SW   24.3   24.5   24.5  1009.4  0.00   0.0   0.000   0.041   26.7    44   13.4   26.4   8.15 1.1556    58.3   212    2     95.5   10 
19/02/18 12:50p   23.8   24.3   23.8    57   14.7   9.7     S   1.61  22.5     S   23.8   24.1   24.1  1009.3  0.00   0.0   0.000   0.038   26.6    44   13.3   26.3   8.15 1.1561    58.3   210    2     94.6   10 
19/02/18  1:00p   24.1   24.1   23.8    54   14.2   9.7   SSE   1.61  29.0    SE   24.1   24.3   24.3  1009.3  0.00   0.0   0.000   0.040   26.6    43   13.0   26.2   8.05 1.1564    58.9   210    2     94.6   10 
19/02/18  1:10p   24.4   24.4   24.1    53   14.2   9.7   SSE   1.61  25.7   SSE   24.4   24.5   24.5  1009.3  0.00   0.0   0.000   0.042   26.6    43   13.0   26.2   8.05 1.1564    59.4   208    2     93.7   10 
19/02/18  1:20p   24.5   24.5   24.3    52   14.0  12.9   SSE   2.15  29.0     S   24.2   24.6   24.3  1009.3  0.00   0.0   0.000   0.043   26.6    43   13.0   26.2   8.05 1.1564    59.4   213    2     95.9   10 
19/02/18  1:30p   24.3   24.5   24.3    54   14.4  12.9   SSE   2.15  24.1   SSE   24.0   24.4   24.2  1009.3  0.00   0.0   0.000   0.041   26.6    42   12.6   26.2   7.85 1.1569    58.9   207    2     93.2   10 
19/02/18  1:40p   24.0   24.3   24.0    54   14.1  12.9   SSE   2.15  27.4    SE   23.7   24.2   23.9  1009.3  0.00   0.0   0.000   0.039   26.6    43   13.0   26.2   8.05 1.1565    58.9   213    2     95.9   10 
19/02/18  1:50p   24.3   24.3   24.0    53   14.1  11.3   SSE   1.88  27.4   ESE   24.3   24.4   24.4  1009.3  0.00   0.0   0.000   0.041   26.6    43   13.0   26.2   8.05 1.1564    59.4   216    2     97.3   10 
19/02/18  2:00p   24.4   24.4   24.3    53   14.2  12.9     S   2.15  27.4     S   24.1   24.5   24.2  1009.4  0.00   0.0   0.000   0.042   26.6    43   13.0   26.2   8.05 1.1565    60.0   213    2     95.9   10 
19/02/18  2:10p   24.7   24.7   24.4    53   14.4  12.9   SSE   2.15  27.4   SSE   24.4   24.7   24.4  1009.4  0.00   0.0   0.000   0.044   26.7    43   13.1   26.3   8.05 1.1560    59.4   217    2     97.7   10 
19/02/18  2:20p   24.6   24.7   24.6    53   14.3  11.3     S   1.88  33.8    SE   24.6   24.7   24.7  1009.0  0.00   0.0   0.000   0.043   26.7    43   13.1   26.3   8.05 1.1556    60.0   208    2     93.7   10 
19/02/18  2:30p   24.4   24.7   24.4    53   14.2  11.3     S   1.88  24.1     S   24.4   24.5   24.5  1009.0  0.00   0.0   0.000   0.042   26.8    43   13.2   26.4   8.05 1.1550    59.4   211    2     95.0   10 
19/02/18  2:40p   24.0   24.4   24.0    53   13.8  11.3     S   1.88  30.6   SSE   24.0   24.2   24.2  1009.0  0.00   0.0   0.000   0.039   26.8    43   13.2   26.4   8.05 1.1550    58.9   211    2     95.0   10 
19/02/18  2:50p   24.1   24.2   24.0    54   14.2  11.3     S   1.88  24.1     S   24.1   24.3   24.3  1009.1  0.00   0.0   0.000   0.040   26.8    42   12.8   26.3   7.85 1.1555    59.4   206    2     92.8   10 
19/02/18  3:00p   23.7   24.1   23.6    55   14.1  17.7     S   2.95  32.2     S   22.4   23.9   22.6  1009.0  0.00   0.0   0.000   0.037   26.7    43   13.1   26.3   8.05 1.1556    58.9   209    2     94.1   10 
19/02/18  3:10p   23.6   23.8   23.6    55   14.0  14.5     S   2.41  29.0     S   22.9   23.8   23.1  1009.0  0.00   0.0   0.000   0.037   26.4    43   12.9   26.1   8.05 1.1567    58.9   209    2     94.1   10 
19/02/18  3:20p   23.7   23.8   23.6    53   13.6   9.7     S   1.61  29.0     S   23.7   23.8   23.8  1009.1  0.00   0.0   0.000   0.037   26.7    43   13.1   26.3   8.05 1.1557    59.4   211    2     95.0   10 
19/02/18  3:30p   23.2   23.7   23.2    55   13.7   8.0     S   1.34  22.5     S   23.2   23.3   23.3  1009.4  0.00   0.0   0.000   0.034   26.7    42   12.7   26.2   7.85 1.1564    58.9   210    2     94.6   10 
19/02/18  3:40p   22.8   23.2   22.8    56   13.6   8.0     S   1.34  27.4     S   22.8   22.9   22.9  1009.4  0.00   0.0   0.000   0.031   26.7    42   12.7   26.2   7.85 1.1564    58.3   210    2     94.6   10 
19/02/18  3:50p   22.3   22.8   22.3    56   13.1  14.5     S   2.41  29.0     S   21.6   22.2   21.4  1009.6  0.00   0.0   0.000   0.028   26.7    42   12.7   26.2   7.85 1.1567    58.3   211    2     95.0   10 
19/02/18  4:00p   22.7   22.7   22.3    55   13.2   9.7     S   1.61  27.4     S   22.7   22.7   22.7  1009.7  0.00   0.0   0.000   0.030   26.8    41   12.4   26.3   7.75 1.1567    58.9   208    2     93.7   10 
19/02/18  4:10p   22.7   22.8   22.7    55   13.2  14.5     S   2.41  30.6     S   21.9   22.7   21.9  1009.7  0.00   0.0   0.000   0.030   26.8    41   12.4   26.3   7.75 1.1567    58.9   210    2     94.6   10 
19/02/18  4:20p   22.1   22.7   22.1    58   13.4  12.9     S   2.15  32.2     S   21.8   21.8   21.6  1010.1  0.00   0.0   0.000   0.026   26.9    41   12.5   26.4   7.74 1.1566    57.8   212    2     95.5   10 
19/02/18  4:30p   22.2   22.2   22.0    56   13.0   8.0     S   1.34  29.0   SSE   22.2   21.9   21.9  1010.3  0.00   0.0   0.000   0.027   26.9    41   12.5   26.4   7.74 1.1568    58.3   215    2     96.8   10 
19/02/18  4:40p   22.6   22.6   22.3    55   13.1  14.5   SSE   2.41  32.2   SSE   21.8   22.4   21.7  1010.3  0.00   0.0   0.000   0.029   27.2    40   12.4   26.6   7.55 1.1559    58.9   207    2     93.2   10 
19/02/18  4:50p   22.4   22.7   22.4    55   13.0   8.0    SE   1.34  20.9    SE   22.4   22.3   22.3  1010.3  0.00   0.0   0.000   0.029   27.2    40   12.4   26.6   7.55 1.1559    58.3   211    2     95.0   10 
19/02/18  5:00p   22.2   22.4   22.2    56   13.0  11.3    SE   1.88  30.6   SSE   22.2   21.9   21.9  1010.5  0.00   0.0   0.000   0.027   27.7    39   12.5   27.3   7.41 1.1539    57.8   214    2     96.4   10 
19/02/18  5:10p   21.9   22.2   21.9    56   12.7  11.3    SE   1.88  30.6    SE   21.9   21.5   21.5  1010.5  0.00   0.0   0.000   0.025   27.5    39   12.3   26.9   7.42 1.1550    57.8   201    2     90.5   10 
19/02/18  5:20p   22.2   22.3   21.9    56   13.0   9.7    SE   1.61  30.6   SSE   22.2   21.9   21.9  1010.4  0.00   0.0   0.000   0.027   27.8    38   12.2   27.3   7.25 1.1537    58.3   208    2     93.7   10 
19/02/18  5:30p   22.0   22.3   22.0    58   13.4   8.0   SSE   1.34  22.5    SE   22.0   21.8   21.8  1010.5  0.00   0.0   0.000   0.025   27.9    38   12.3   27.4   7.25 1.1535    57.2   198    2     89.2   10 
19/02/18  5:40p   21.2   21.9   21.2    60   13.1   6.4   ESE   1.07  19.3     E   21.2   20.8   20.8  1010.5  0.00   0.0   0.000   0.020   27.5    39   12.3   26.9   7.42 1.1549    56.7   206    2     92.8   10 
19/02/18  5:50p   20.9   21.1   20.9    62   13.4   4.8    SE   0.80  22.5    SE   20.9   20.7   20.7  1010.6  0.00   0.0   0.000   0.018   27.2    40   12.4   26.6   7.55 1.1562    56.7   210    2     94.6   10 
19/02/18  6:00p   20.9   20.9   20.8    62   13.4   6.4   ESE   1.07  27.4    SE   20.9   20.7   20.7  1010.3  0.00   0.0   0.000   0.018   27.0    40   12.2   26.4   7.55 1.1567    56.7   205    2     92.3   10 
19/02/18  6:10p   20.8   21.1   20.8    61   13.0   9.7    SE   1.61  27.4    SE   20.8   20.4   20.4  1010.3  0.00   0.0   0.000   0.017   26.8    41   12.4   26.3   7.75 1.1574    56.7   214    2     96.4   10 
19/02/18  6:20p   20.7   20.8   20.7    62   13.1   6.4    SE   1.07  25.7    SE   20.7   20.4   20.4  1010.5  0.00   0.0   0.000   0.016   26.6    41   12.2   26.1   7.75 1.1586    56.7   209    2     94.1   10 
19/02/18  6:30p   20.7   20.7   20.6    62   13.1   8.0   SSE   1.34  27.4     E   20.7   20.4   20.4  1010.7  0.00   0.0   0.000   0.016   26.3    41   12.0   25.9   7.75 1.1600    56.7   211    2     95.0   10 
19/02/18  6:40p   20.6   20.7   20.6    63   13.3   8.0   SSE   1.34  27.4    SE   20.6   20.4   20.4  1010.7  0.00   0.0   0.000   0.015   26.3    41   12.0   25.9   7.75 1.1600    56.7   200    2     90.1   10 
19/02/18  6:50p   20.4   20.6   20.4    63   13.1   4.8    SE   0.80  22.5    SE   20.4   20.3   20.3  1010.8  0.00   0.0   0.000   0.014   26.3    41   12.0   25.8   7.75 1.1603    56.7   212    2     95.5   10 
19/02/18  7:00p   19.9   20.4   19.9    64   12.9   4.8   ESE   0.80  19.3   ESE   19.9   20.0   20.0  1011.1  0.00   0.0   0.000   0.011   25.9    41   11.7   25.6   7.75 1.1623    56.7   209    2     94.1   10 
19/02/18  7:10p   19.7   19.9   19.7    64   12.7   4.8   ESE   0.80  20.9   ESE   19.7   19.7   19.7  1011.1  0.00   0.0   0.000   0.010   25.6    42   11.7   25.2   7.89 1.1635    56.7   205    2     92.3   10 
19/02/18  7:20p   19.7   19.7   19.7    64   12.7   4.8    SE   0.80  20.9   SSE   19.7   19.7   19.7  1011.3  0.00   0.0   0.000   0.009   25.2    42   11.3   24.8   7.90 1.1659    56.1   215    2     96.8   10 
19/02/18  7:30p   19.4   19.7   19.4    64   12.5   4.8     S   0.80  25.7     S   19.4   19.4   19.4  1011.3  0.00   0.0   0.000   0.008   24.7    43   11.2   24.3   8.05 1.1680    56.1   204    2     91.9   10 
19/02/18  7:40p   19.3   19.4   19.3    65   12.5   6.4   ESE   1.07  20.9   ESE   19.3   19.2   19.2  1011.3  0.00   0.0   0.000   0.007   24.3    43   10.9   24.0   8.05 1.1696    56.1   204    2     91.9   10 
19/02/18  7:50p   19.0   19.2   19.0    66   12.5   6.4    SE   1.07  25.7    SE   19.0   18.9   18.9  1011.7  0.00   0.0   0.000   0.005   24.3    44   11.3   24.1   8.23 1.1696    56.1   210    2     94.6   10 
19/02/18  8:00p   18.8   19.0   18.8    66   12.3   6.4    SE   1.07  25.7    SE   18.8   18.8   18.8  1011.8  0.00   0.0   0.000   0.003   25.2    43   11.7   24.8   8.05 1.1662    56.1   212    2     95.5   10 
19/02/18  8:10p   18.7   18.8   18.7    67   12.5   8.0    SE   1.34  25.7   ESE   18.7   18.7   18.7  1011.8  0.00   0.0   0.000   0.003   25.4    42   11.6   25.1   7.89 1.1652    56.1   213    2     95.9   10 
19/02/18  8:20p   18.7   18.7   18.7    67   12.4  11.3    SE   1.88  25.7    SE   18.7   18.6   18.6  1012.0  0.00   0.0   0.000   0.002   25.7    42   11.8   25.3   7.88 1.1640    55.6   211    2     95.0   10 
19/02/18  8:30p   18.5   18.7   18.5    68   12.5   8.0   SSE   1.34  25.7   ESE   18.5   18.4   18.4  1012.1  0.00   0.0   0.000   0.001   25.8    41   11.6   25.4   7.75 1.1640    55.6   213    2     95.9   10 
19/02/18  8:40p   18.4   18.5   18.4    69   12.6   4.8   SSE   0.80  22.5   ESE   18.4   18.4   18.4  1012.1  0.00   0.0   0.000   0.000   25.9    41   11.7   25.6   7.75 1.1634    55.6   211    2     95.0   10 
19/02/18  8:50p   18.3   18.4   18.3    70   12.7   6.4    SE   1.07  20.9   SSE   18.3   18.3   18.3  1012.3  0.00   0.0   0.000   0.000   26.1    41   11.8   25.7   7.75 1.1631    55.6   212    2     95.5   10 
19/02/18  9:00p   18.2   18.3   18.2    70   12.7   6.4   SSE   1.07  19.3    SE   18.2   18.2   18.2  1012.4  0.00   0.0   0.001   0.000   26.1    40   11.4   25.6   7.57 1.1637    55.6   211    2     95.0   10 
19/02/18  9:10p   18.0   18.2   18.0    70   12.4   4.8   SSE   0.80  20.9   SSE   18.0   17.9   17.9  1012.4  0.00   0.0   0.002   0.000   26.2    40   11.5   25.7   7.57 1.1632    55.6   213    2     95.9   10 
19/02/18  9:20p   17.8   18.0   17.8    71   12.5   8.0   SSE   1.34  27.4    SE   17.8   17.8   17.8  1012.7  0.00   0.0   0.003   0.000   26.2    40   11.5   25.7   7.57 1.1635    55.6   213    2     95.9   10 
19/02/18  9:30p   17.7   17.8   17.7    71   12.3   9.7   SSE   1.61  22.5   ESE   17.7   17.6   17.6  1012.6  0.00   0.0   0.005   0.000   26.2    40   11.5   25.7   7.57 1.1634    55.0   218    2     98.2   10 
19/02/18  9:40p   17.5   17.7   17.5    71   12.2   8.0    SE   1.34  27.4   SSE   17.5   17.4   17.4  1012.6  0.00   0.0   0.006   0.000   26.1    40   11.4   25.6   7.57 1.1639    55.0   214    2     96.4   10 
19/02/18  9:50p   17.4   17.5   17.4    72   12.3   4.8   SSE   0.80  16.1   ESE   17.4   17.3   17.3  1012.8  0.00   0.0   0.007   0.000   26.1    40   11.4   25.6   7.57 1.1641    55.0   214    2     96.4   10 
19/02/18 10:00p   17.4   17.4   17.4    72   12.3   4.8   SSE   0.80  19.3   SSE   17.4   17.3   17.3  1013.0  0.00   0.0   0.007   0.000   25.8    40   11.2   25.3   7.58 1.1655    55.0   206    2     92.8   10 
19/02/18 10:10p   17.5   17.5   17.4    72   12.4   6.4   SSE   1.07  22.5    SE   17.5   17.4   17.4  1013.0  0.00   0.0   0.006   0.000   25.7    40   11.1   25.2   7.58 1.1660    55.6   212    2     95.5   10 
19/02/18 10:20p   17.5   17.5   17.5    73   12.6   4.8   SSE   0.80  20.9   SSE   17.5   17.4   17.4  1012.9  0.00   0.0   0.006   0.000   25.6    40   11.0   25.1   7.59 1.1664    55.6   210    2     94.6   10 
19/02/18 10:30p   17.4   17.5   17.4    73   12.5   8.0   SSE   1.34  20.9   ESE   17.4   17.3   17.3  1012.7  0.00   0.0   0.007   0.000   25.6    40   11.0   25.1   7.59 1.1665    55.0   210    2     94.6   10 
19/02/18 10:40p   17.4   17.4   17.4    74   12.7   6.4   SSE   1.07  16.1   SSE   17.4   17.3   17.3  1012.7  0.00   0.0   0.007   0.000   25.6    40   11.0   25.1   7.59 1.1665    55.0   216    2     97.3   10 
19/02/18 10:50p   17.6   17.6   17.4    73   12.7  11.3   SSE   1.88  25.7    SE   17.6   17.5   17.5  1012.8  0.00   0.0   0.005   0.000   25.4    41   11.2   25.0   7.75 1.1667    55.6   212    2     95.5   10 
19/02/18 11:00p   17.6   17.7   17.6    73   12.7   4.8   SSE   0.80  22.5   SSE   17.6   17.5   17.5  1012.9  0.00   0.0   0.005   0.000   25.4    41   11.2   25.0   7.75 1.1669    55.6   217    2     97.7   10 
19/02/18 11:10p   17.7   17.7   17.6    73   12.8  11.3   SSE   1.88  27.4    SE   17.7   17.6   17.6  1012.9  0.00   0.0   0.005   0.000   25.3    41   11.1   24.9   7.75 1.1674    55.6   221    2     99.5   10 
19/02/18 11:20p   17.8   17.8   17.7    73   12.9  11.3   SSE   1.88  27.4   SSE   17.8   17.8   17.8  1012.9  0.00   0.0   0.004   0.000   25.2    41   11.0   24.8   7.75 1.1679    55.6   214    2     96.4   10 
19/02/18 11:30p   17.8   17.8   17.8    73   12.9   9.7   SSE   1.61  22.5   SSE   17.8   17.8   17.8  1013.1  0.00   0.0   0.004   0.000   25.2    41   11.0   24.8   7.75 1.1681    55.6   209    2     94.1   10 
19/02/18 11:40p   17.8   17.8   17.8    73   12.9   8.0   SSE   1.34  17.7   SSE   17.8   17.8   17.8  1013.1  0.00   0.0   0.004   0.000   25.2    42   11.3   24.8   7.90 1.1680    55.6   210    2     94.6   10 
19/02/18 11:50p   17.8   17.8   17.8    73   12.9  11.3   SSE   1.88  30.6   SSE   17.8   17.8   17.8  1013.1  0.00   0.0   0.003   0.000   25.1    41   10.9   24.7   7.75 1.1689    55.6   217    2     97.7   10 
20/02/18 12:00a   17.8   17.8   17.8    73   12.9   9.7   SSE   1.61  20.9    SE   17.8   17.8   17.8  1013.1  0.00   0.0   0.003   0.000   24.9    42   11.1   24.6   7.91 1.1691    55.6   209    2     94.1   10 
20/02/18 12:10a   17.8   17.8   17.8    74   13.1   8.0   SSE   1.34  27.4   SSE   17.8   17.8   17.8  1013.1  0.00   0.0   0.004   0.000   24.9    41   10.8   24.6   7.75 1.1695    55.6   204    2     91.9   10 
20/02/18 12:20a   17.5   17.8   17.5    75   13.0  11.3   SSE   1.88  20.9   SSE   17.5   17.5   17.5  1013.2  0.00   0.0   0.006   0.000   24.9    42   11.1   24.6   7.91 1.1692    55.6   215    2     96.8   10 
20/02/18 12:30a   17.4   17.5   17.4    76   13.1   9.7   SSE   1.61  22.5   SSE   17.4   17.4   17.4  1013.2  0.00   0.0   0.007   0.000   24.8    42   11.0   24.4   7.92 1.1697    55.6   212    2     95.5   10 
20/02/18 12:40a   17.3   17.4   17.3    75   12.9   8.0   SSE   1.34  22.5    SE   17.3   17.3   17.3  1013.2  0.00   0.0   0.007   0.000   24.8    42   11.0   24.4   7.92 1.1697    55.6   211    2     95.0   10 
20/02/18 12:50a   17.3   17.3   17.3    74   12.7  11.3   SSE   1.88  29.0     S   17.3   17.3   17.2  1013.3  0.00   0.0   0.007   0.000   24.7    42   10.9   24.3   7.92 1.1704    55.6   213    2     95.9   10 
20/02/18  1:00a   17.2   17.3   17.2    74   12.5   8.0   SSE   1.34  25.7    SE   17.2   17.2   17.2  1013.4  0.00   0.0   0.008   0.000   24.7    42   10.9   24.3   7.92 1.1708    55.6   216    2     97.3   10 
20/02/18  1:10a   17.1   17.2   17.1    74   12.4  11.3   SSE   1.88  33.8   SSE   16.9   16.9   16.8  1013.4  0.00   0.0   0.009   0.000   24.7    42   10.9   24.3   7.92 1.1708    55.0   206    2     92.8   10 
20/02/18  1:20a   16.8   17.1   16.8    74   12.1   8.0   SSE   1.34  30.6    SE   16.8   16.7   16.7  1013.2  0.00   0.0   0.011   0.000   24.6    42   10.8   24.2   7.93 1.1711    55.0   209    2     94.1   10 
20/02/18  1:30a   16.7   16.8   16.7    75   12.3   6.4   SSE   1.07  17.7     S   16.7   16.6   16.6  1013.3  0.00   0.0   0.011   0.000   24.4    42   10.7   24.1   7.93 1.1717    55.0   214    2     96.4   10 
20/02/18  1:40a   16.5   16.7   16.5    76   12.3   3.2   SSE   0.54  12.9   SSE   16.5   16.4   16.4  1013.3  0.00   0.0   0.013   0.000   24.3    42   10.6   23.9   7.93 1.1723    55.0   211    2     95.0   10 
20/02/18  1:50a   16.4   16.5   16.4    75   12.0   8.0   SSE   1.34  22.5    SE   16.4   16.3   16.3  1013.5  0.00   0.0   0.013   0.000   24.3    42   10.6   23.9   7.93 1.1725    55.0   209    2     94.1   10 
20/02/18  2:00a   16.5   16.5   16.4    75   12.1   8.0   SSE   1.34  30.6   SSE   16.5   16.4   16.4  1013.5  0.00   0.0   0.013   0.000   24.3    42   10.5   23.9   7.94 1.1728    55.0   216    2     97.3   10 
20/02/18  2:10a   16.5   16.5   16.4    75   12.1   3.2    SE   0.54  12.9    SE   16.5   16.4   16.4  1013.5  0.00   0.0   0.013   0.000   24.3    42   10.5   23.9   7.94 1.1728    55.0   211    2     95.0   10 
20/02/18  2:20a   16.4   16.4   16.4    74   11.8   4.8    SE   0.80  20.9    SE   16.4   16.3   16.3  1013.7  0.00   0.0   0.013   0.000   24.3    42   10.5   23.9   7.94 1.1730    55.0   211    2     95.0   10 
20/02/18  2:30a   16.3   16.4   16.3    75   11.8   3.2    SE   0.54  19.3   SSE   16.3   16.1   16.1  1013.6  0.00   0.0   0.014   0.000   24.2    43   10.8   23.8   8.05 1.1731    55.0   213    2     95.9   10 
20/02/18  2:40a   16.2   16.3   16.2    74   11.5   6.4   SSE   1.07  27.4    SE   16.2   15.9   15.9  1013.6  0.00   0.0   0.015   0.000   24.1    42   10.3   23.7   7.94 1.1740    55.0   207    2     93.2   10 
20/02/18  2:50a   16.0   16.2   16.0    75   11.6   4.8    SE   0.80  20.9    SE   16.0   15.8   15.8  1013.7  0.00   0.0   0.016   0.000   23.9    42   10.2   23.6   7.95 1.1746    54.4   214    2     96.4   10 
20/02/18  3:00a   15.7   16.0   15.7    74   11.0   4.8    SE   0.80  19.3   SSE   15.7   15.4   15.4  1013.5  0.00   0.0   0.019   0.000   23.9    42   10.2   23.6   7.95 1.1747    54.4   207    2     93.2   10 
20/02/18  3:10a   15.5   15.7   15.5    75   11.1   6.4    SE   1.07  22.5   SSE   15.5   15.3   15.3  1013.5  0.00   0.0   0.020   0.000   23.9    42   10.2   23.6   7.95 1.1747    54.4   213    2     95.9   10 
20/02/18  3:20a   15.2   15.5   15.2    75   10.8   4.8    SE   0.80  20.9    SE   15.2   14.9   14.9  1013.6  0.00   0.0   0.022   0.000   23.8    42   10.1   23.4   7.95 1.1753    53.9   211    2     95.0   10 
20/02/18  3:30a   15.2   15.2   15.2    76   11.0   8.0    SE   1.34  29.0    SE   15.1   14.9   14.9  1013.5  0.00   0.0   0.022   0.000   23.8    42   10.1   23.4   7.95 1.1753    53.9   209    2     94.1   10 
20/02/18  3:40a   15.1   15.2   15.1    76   10.9   9.7   SSE   1.61  32.2    SE   14.7   14.8   14.5  1013.5  0.00   0.0   0.023   0.000   23.7    42   10.0   23.3   7.96 1.1758    53.9   216    2     97.3   10 
20/02/18  3:50a   15.0   15.1   15.0    75   10.6   6.4    SE   1.07  27.4     E   15.0   14.7   14.7  1013.7  0.00   0.0   0.023   0.000   23.7    42   10.0   23.3   7.96 1.1759    54.4   209    2     94.1   10 
20/02/18  4:00a   14.9   15.0   14.9    74   10.3   4.8    SE   0.80  19.3   ENE   14.9   14.6   14.6  1013.8  0.00   0.0   0.024   0.000   23.6    42    9.9   23.2   7.96 1.1766    53.9   208    2     93.7   10 
20/02/18  4:10a   14.7   14.9   14.7    74   10.1   4.8    SE   0.80  20.9   SSE   14.7   14.4   14.4  1013.8  0.00   0.0   0.025   0.000   23.5    42    9.8   23.1   7.96 1.1769    53.9   212    2     95.5   10 
20/02/18  4:20a   14.7   14.7   14.7    74   10.1   4.8    SE   0.80  12.9    SE   14.7   14.3   14.3  1014.1  0.00   0.0   0.025   0.000   23.5    42    9.8   23.1   7.96 1.1772    53.9   213    2     95.9   10 
20/02/18  4:30a   14.5   14.7   14.5    74    9.9   6.4   SSE   1.07  22.5    SE   14.5   14.2   14.2  1013.9  0.00   0.0   0.027   0.000   23.3    42    9.6   22.8   7.97 1.1781    53.3   206    2     92.8   10 
20/02/18  4:40a   14.3   14.5   14.3    75    9.9   3.2   SSE   0.54  20.9    SE   14.3   14.0   14.0  1013.9  0.00   0.0   0.028   0.000   23.2    42    9.5   22.7   7.98 1.1786    53.3   210    2     94.6   10 
20/02/18  4:50a   14.2   14.3   14.2    76   10.0   4.8    SE   0.80  22.5    SE   14.2   14.0   14.0  1013.8  0.00   0.0   0.029   0.000   23.2    42    9.5   22.7   7.98 1.1785    53.3   213    2     95.9   10 
20/02/18  5:00a   14.1   14.2   14.1    77   10.1   1.6    SE   0.27   9.7    SE   14.1   13.8   13.8  1014.2  0.00   0.0   0.030   0.000   23.1    42    9.5   22.6   7.98 1.1792    53.3   207    2     93.2   10 
20/02/18  5:10a   13.9   14.1   13.9    77   10.0   0.0    SE   0.00   8.0    SE   13.9   13.7   13.7  1014.2  0.00   0.0   0.030   0.000   23.1    42    9.5   22.6   7.98 1.1792    53.3   208    2     93.7   10 
20/02/18  5:20a   14.1   14.1   13.9    77   10.1   0.0    SE   0.00  11.3    SE   14.1   13.8   13.8  1014.6  0.00   0.0   0.030   0.000   23.0    42    9.4   22.4   7.98 1.1802    53.3   216    2     97.3   10 
20/02/18  5:30a   14.3   14.3   14.1    76   10.1   3.2    SE   0.54  12.9   SSE   14.3   14.1   14.1  1014.6  0.00   0.0   0.028   0.000   22.9    41    8.9   22.3   7.82 1.1811    53.9   212    2     95.5   10 
20/02/18  5:40a   14.5   14.5   14.3    75   10.1   3.2    SE   0.54  25.7   SSE   14.5   14.2   14.2  1014.6  0.00   0.0   0.027   0.000   22.8    42    9.2   22.2   7.99 1.1811    53.9   211    2     95.0   10 
20/02/18  5:50a   14.7   14.7   14.5    74   10.1   6.4   SSE   1.07  17.7    SE   14.7   14.3   14.3  1014.7  0.00   0.0   0.025   0.000   22.8    42    9.2   22.2   7.99 1.1811    53.9   213    2     95.9   10 
20/02/18  6:00a   14.7   14.7   14.7    74   10.1   4.8   SSE   0.80  17.7    SE   14.7   14.3   14.3  1014.9  0.00   0.0   0.025   0.000   22.7    42    9.1   22.1   7.99 1.1820    53.9   217    2     97.7   10 
20/02/18  6:10a   14.6   14.7   14.6    73    9.8   6.4   SSE   1.07  20.9   SSE   14.6   14.2   14.2  1014.9  0.00   0.0   0.026   0.000   22.6    42    9.0   21.9   8.00 1.1825    53.9   208    2     93.7   10 
20/02/18  6:20a   14.3   14.6   14.3    73    9.5   6.4    SE   1.07  22.5   SSE   14.3   13.9   13.9  1015.1  0.00   0.0   0.028   0.000   22.6    42    9.0   21.9   8.00 1.1828    53.9   213    2     95.9   10 
20/02/18  6:30a   14.3   14.3   14.3    73    9.5   6.4    SE   1.07  27.4    SE   14.3   13.9   13.9  1015.4  0.00   0.0   0.028   0.000   22.5    41    8.6   21.7   7.85 1.1840    53.9   213    2     95.9   10 
20/02/18  6:40a   14.3   14.3   14.3    72    9.3   4.8   SSE   0.80  17.7   SSE   14.3   13.9   13.9  1015.4  0.00   0.0   0.028   0.000   22.5    41    8.6   21.7   7.85 1.1840    53.9   212    2     95.5   10 
20/02/18  6:50a   14.2   14.3   14.2    72    9.2   4.8    SE   0.80  20.9    SE   14.2   13.8   13.8  1015.7  0.00   0.0   0.029   0.000   22.4    42    8.9   21.6   8.00 1.1842    53.9   210    2     94.6   10 
20/02/18  7:00a   14.1   14.2   14.1    72    9.1   4.8    SE   0.80  27.4    SE   14.1   13.7   13.7  1016.0  0.00   0.0   0.029   0.000   22.3    42    8.8   21.4   8.01 1.1851    53.3   212    2     95.5   10 
20/02/18  7:10a   13.9   14.1   13.9    71    8.8   4.8    SE   0.80  20.9   ESE   13.9   13.6   13.6  1016.0  0.00   0.0   0.030   0.000   22.2    42    8.7   21.3   8.01 1.1857    53.3   213    2     95.9   10 
20/02/18  7:20a   13.9   13.9   13.9    69    8.3   6.4    SE   1.07  29.0    SE   13.9   13.4   13.4  1016.4  0.00   0.0   0.031   0.000   22.3    42    8.8   21.4   8.01 1.1856    53.3   203    2     91.4   10 
20/02/18  7:30a   13.8   13.9   13.8    67    7.8   6.4    SE   1.07  20.9     E   13.8   13.3   13.3  1016.8  0.00   0.0   0.032   0.000   22.3    41    8.4   21.4   7.86 1.1864    53.3   212    2     95.5   10 
20/02/18  7:40a   13.7   13.8   13.7    65    7.2   4.8    SE   0.80  20.9    SE   13.7   13.1   13.1  1016.8  0.00   0.0   0.032   0.000   22.4    41    8.5   21.6   7.85 1.1858    53.3   211    2     95.0   10 
20/02/18  7:50a   13.7   13.7   13.6    63    6.7   6.4    SE   1.07  20.9   ESE   13.6   13.1   13.0  1017.2  0.00   0.0   0.032   0.000   22.5    40    8.2   21.6   7.70 1.1864    53.3   212    2     95.5   10 
20/02/18  8:00a   13.8   13.8   13.7    60    6.1  11.3    SE   1.88  33.8   ESE   13.0   13.1   12.3  1017.3  0.00   0.0   0.032   0.000   22.5    39    7.8   21.6   7.60 1.1868    53.9   211    2     95.0   10 
20/02/18  8:10a   14.1   14.1   13.8    59    6.2   8.0    SE   1.34  25.7   ESE   13.8   13.3   13.0  1017.3  0.00   0.0   0.030   0.000   22.5    39    7.8   21.6   7.60 1.1868    55.0   218    2     98.2   10 
20/02/18  8:20a   14.6   14.6   14.1    57    6.1   9.7    SE   1.61  29.0   ESE   14.1   13.7   13.3  1017.5  0.00   0.0   0.026   0.000   22.6    38    7.6   21.7   7.44 1.1868    54.4   216    2     97.3   10 
20/02/18  8:30a   15.2   15.2   14.6    56    6.4   8.0    SE   1.34  29.0   SSE   15.1   14.3   14.3  1017.6  0.00   0.0   0.022   0.000   22.6    38    7.6   21.7   7.44 1.1870    57.2   211    2     95.0   10 
20/02/18  8:40a   15.6   15.7   15.2    53    6.0  12.9     S   2.15  35.4   SSE   14.7   14.6   13.7  1017.6  0.00   0.0   0.019   0.000   22.7    38    7.7   21.8   7.43 1.1864    56.7   214    2     96.4   10 
20/02/18  8:50a   15.1   15.6   15.0    55    6.1  14.5     S   2.41  35.4   SSE   13.7   14.2   12.8  1017.7  0.00   0.0   0.023   0.000   22.9    37    7.4   22.1   7.29 1.1861    56.1   211    2     95.0   10 
20/02/18  9:00a   14.7   15.6   14.7    56    6.0  14.5     S   2.41  38.6     S   13.3   13.9   12.4  1017.7  0.00   0.0   0.025   0.000   22.9    37    7.4   22.1   7.29 1.1861    54.4   213    2     95.9   10 
20/02/18  9:10a   14.5   14.7   14.4    57    6.1  12.9   SSE   2.15  30.6   SSE   13.4   13.7   12.6  1017.7  0.00   0.0   0.027   0.000   22.9    36    7.0   22.0   7.12 1.1864    56.1   214    2     96.4   10 
20/02/18  9:20a   15.2   15.2   14.5    54    5.9  11.3   SSE   1.88  25.7    SE   14.7   14.2   13.7  1017.9  0.00   0.0   0.022   0.000   22.8    36    7.0   21.9   7.13 1.1868    55.6   214    2     96.4   10 
20/02/18  9:30a   15.9   15.9   15.2    52    6.0   9.7     S   1.61  25.7   SSE   15.7   14.9   14.7  1017.8  0.00   0.0   0.017   0.000   22.9    36    7.0   22.0   7.12 1.1865    58.3   211    2     95.0   10 
20/02/18  9:40a   16.2   16.2   15.7    50    5.7   8.0    SE   1.34  22.5    SE   16.2   15.1   15.1  1017.8  0.00   0.0   0.015   0.000   23.0    35    6.7   22.1   6.98 1.1863    58.3   212    2     95.5   10 
20/02/18  9:50a   16.3   16.4   16.2    49    5.6   8.0    SE   1.34  25.7    SE   16.3   15.2   15.2  1017.8  0.00   0.0   0.014   0.000   23.0    35    6.7   22.1   6.98 1.1863    57.8   212    2     95.5   10 
20/02/18 10:00a   16.5   16.6   16.3    49    5.7   8.0    SE   1.34  25.7   SSE   16.5   15.4   15.4  1018.0  0.00   0.0   0.013   0.000   23.1    35    6.8   22.3   6.98 1.1860    58.3   210    2     94.6   10 
20/02/18 10:10a   16.0   16.6   16.0    51    5.9   4.8   SSE   0.80  17.7    SE   16.0   14.9   14.9  1018.0  0.00   0.0   0.016   0.000   23.1    35    6.8   22.3   6.98 1.1860    55.6   211    2     95.0   10 
20/02/18 10:20a   16.5   16.5   16.0    50    6.0   9.7   SSE   1.61  25.7    SE   16.4   15.4   15.4  1017.9  0.00   0.0   0.013   0.000   23.2    35    6.9   22.3   6.98 1.1857    56.1   216    2     97.3   10 
20/02/18 10:30a   17.1   17.1   16.5    50    6.6   9.7   SSE   1.61  25.7     S   17.1   16.1   16.1  1017.5  0.00   0.0   0.008   0.000   23.5    35    7.1   22.8   6.96 1.1836    57.2   213    2     95.9   10 
20/02/18 10:40a   17.8   17.8   17.1    49    6.9  11.3   SSE   1.88  25.7     S   17.8   16.7   16.7  1017.5  0.00   0.0   0.004   0.000   23.6    34    6.8   22.8   6.76 1.1837    57.8   215    2     96.8   10 
20/02/18 10:50a   18.3   18.3   17.8    45    6.1  11.3   SSE   1.88  22.5     S   18.3   17.1   17.1  1017.3  0.00   0.0   0.000   0.000   23.8    34    7.0   23.1   6.75 1.1824    58.9   212    2     95.5   10 
20/02/18 11:00a   18.7   18.7   18.3    44    6.2  11.3   SSE   1.88  27.4   SSE   18.7   17.5   17.5  1017.3  0.00   0.0   0.000   0.003   23.9    33    6.6   23.1   6.55 1.1823    58.9   215    2     96.8   10 
20/02/18 11:10a   18.2   18.7   18.2    44    5.8  12.9   SSE   2.15  27.4    SE   17.9   16.9   16.6  1017.3  0.00   0.0   0.001   0.000   23.9    33    6.7   23.2   6.55 1.1820    57.8   211    2     95.0   10 
20/02/18 11:20a   18.1   18.4   17.9    44    5.7  12.9   SSE   2.15  32.2    SE   17.7   16.8   16.4  1017.2  0.00   0.0   0.002   0.000   23.9    33    6.6   23.1   6.55 1.1821    57.2   211    2     95.0   10 
20/02/18 11:30a   19.1   19.1   18.1    43    6.2   8.0    SE   1.34  27.4     S   19.1   17.9   17.9  1016.9  0.00   0.0   0.000   0.005   23.9    33    6.7   23.2   6.55 1.1815    58.3   212    2     95.5   10 
20/02/18 11:40a   19.4   19.4   19.0    43    6.5   8.0    SE   1.34  27.4   ESE   19.4   18.2   18.2  1016.9  0.00   0.0   0.000   0.007   24.1    33    6.8   23.3   6.55 1.1810    59.4   212    2     95.5   10 
20/02/18 11:50a   19.4   19.7   19.4    42    6.1   8.0    SE   1.34  27.4    SE   19.4   18.1   18.1  1016.8  0.00   0.0   0.000   0.007   24.2    33    6.9   23.4   6.55 1.1803    58.3   209    2     94.1   10 
20/02/18 12:00p   19.3   19.4   19.1    43    6.4   8.0    SE   1.34  20.9     S   19.3   18.1   18.1  1016.7  0.00   0.0   0.000   0.007   24.3    33    7.0   23.6   6.55 1.1798    59.4   214    2     96.4   10 
20/02/18 12:10p   19.6   19.7   19.4    42    6.3   9.7   SSE   1.61  29.0   SSE   19.6   18.3   18.3  1016.7  0.00   0.0   0.000   0.008   24.3    33    7.0   23.6   6.55 1.1795    59.4   214    2     96.4   10 
20/02/18 12:20p   19.7   19.7   19.6    43    6.7   9.7   SSE   1.61  30.6     S   19.7   18.5   18.5  1017.0  0.00   0.0   0.000   0.009   24.4    32    6.7   23.7   6.43 1.1797    60.0   207    2     93.2   10 
20/02/18 12:30p   19.7   19.7   19.7    42    6.4   8.0   SSE   1.34  25.7    SE   19.7   18.4   18.4  1016.7  0.00   0.0   0.000   0.009   24.6    33    7.2   23.8   6.55 1.1785    58.9   209    2     94.1   10 
20/02/18 12:40p   19.7   19.7   19.4    43    6.7   8.0   SSE   1.34  25.7   ESE   19.7   18.5   18.5  1016.7  0.00   0.0   0.000   0.009   24.7    32    6.9   23.9   6.42 1.1783    59.4   216    2     97.3   10 
20/02/18 12:50p   20.3   20.3   19.6    42    6.9   9.7   SSE   1.61  29.0   SSE   20.3   19.1   19.1  1016.5  0.00   0.0   0.000   0.014   24.7    33    7.4   24.1   6.55 1.1775    59.4   212    2     95.5   10 
20/02/18  1:00p   19.9   20.5   19.9    42    6.6  12.9   SSE   2.15  33.8    SE   19.6   18.7   18.3  1016.4  0.00   0.0   0.000   0.011   24.7    32    6.9   24.1   6.42 1.1777    59.4   210    2     94.6   10 
20/02/18  1:10p   20.3   20.3   19.8    41    6.6  11.3   SSE   1.88  29.0    SE   20.3   19.0   19.0  1016.4  0.00   0.0   0.000   0.014   24.8    32    7.0   24.2   6.42 1.1771    60.0   210    2     94.6   10 
20/02/18  1:20p   20.6   20.6   20.3    41    6.8  12.9   SSE   2.15  25.7   SSE   20.2   19.3   18.9  1016.2  0.00   0.0   0.000   0.015   25.1    32    7.2   24.4   6.41 1.1758    60.0   218    2     98.2   10 
20/02/18  1:30p   20.7   20.8   20.6    40    6.6  11.3   SSE   1.88  25.7    SE   20.7   19.3   19.3  1016.1  0.00   0.0   0.000   0.016   25.2    32    7.3   24.5   6.40 1.1752    61.1   205    2     92.3   10 
20/02/18  1:40p   20.9   20.9   20.7    40    6.8   4.8   ESE   0.80  20.9     S   20.9   19.5   19.5  1016.1  0.00   0.0   0.000   0.018   25.3    32    7.4   24.6   6.40 1.1745    60.6   212    2     95.5   10 
20/02/18  1:50p   21.1   21.1   20.9    40    7.0  11.3   SSE   1.88  29.0   SSE   21.1   19.6   19.6  1015.6  0.00   0.0   0.000   0.019   25.3    32    7.4   24.6   6.40 1.1740    61.1   211    2     95.0   10 
20/02/18  2:00p   21.5   21.5   21.1    38    6.6   9.7   SSE   1.61  27.4    SE   21.5   20.0   20.0  1015.4  0.00   0.0   0.000   0.022   25.6    32    7.6   24.7   6.39 1.1726    60.6   212    2     95.5   10 
20/02/18  2:10p   21.5   21.6   21.3    38    6.6   9.7   SSE   1.61  22.5    SE   21.5   20.0   20.0  1015.4  0.00   0.0   0.000   0.022   25.6    31    7.2   24.7   6.19 1.1730    60.6   214    2     96.4   10 
20/02/18  2:20p   21.4   21.7   21.4    37    6.1  12.9   SSE   2.15  25.7    SE   21.1   19.8   19.6  1015.3  0.00   0.0   0.000   0.021   25.7    31    7.3   24.8   6.18 1.1721    61.1   215    2     96.8   10 
20/02/18  2:30p   21.6   21.7   21.5    38    6.7  14.5   SSE   2.41  29.0    SE   20.8   20.2   19.4  1015.2  0.00   0.0   0.000   0.023   25.9    31    7.5   25.1   6.18 1.1710    60.6   209    2     94.1   10 
20/02/18  2:40p   21.4   21.6   21.3    38    6.5  11.3   SSE   1.88  25.7    SE   21.4   19.9   19.9  1015.2  0.00   0.0   0.000   0.021   26.3    31    7.8   25.3   6.16 1.1694    60.6   205    2     92.3   10 
20/02/18  2:50p   21.6   21.6   21.2    38    6.7   8.0   SSE   1.34  27.4    SE   21.6   20.2   20.2  1015.4  0.00   0.0   0.000   0.023   26.6    31    8.0   25.5   6.15 1.1684    60.6   210    2     94.6   10